createdAt,value
2017-06-01T00:02:07.485Z,6.26
2017-06-01T00:04:34.789Z,4.44
2017-06-01T00:07:02.448Z,7.98
2017-06-01T00:09:29.812Z,5.94
2017-06-01T00:11:57.193Z,6.48
2017-06-01T00:14:24.488Z,5.82
2017-06-01T00:16:51.788Z,6.00
2017-06-01T00:19:18.989Z,9.14
2017-06-01T00:21:46.328Z,7.14
2017-06-01T00:24:13.696Z,6.42
2017-06-01T00:26:48.869Z,7.08
2017-06-01T00:29:16.187Z,7.00
2017-06-01T00:31:43.820Z,5.02
2017-06-01T00:34:11.176Z,11.00
2017-06-01T00:36:37.772Z,3.82
2017-06-01T00:39:05.021Z,7.72
2017-06-01T00:41:32.248Z,4.42
2017-06-01T00:43:59.609Z,6.44
2017-06-01T00:46:26.933Z,5.34
2017-06-01T00:48:54.368Z,4.24
2017-06-01T00:51:21.693Z,5.98
2017-06-01T00:53:48.911Z,6.30
2017-06-01T00:56:16.259Z,6.40
2017-06-01T00:58:43.525Z,10.94
2017-06-01T01:01:10.862Z,5.30
2017-06-01T01:03:38.241Z,6.32
2017-06-01T01:06:05.950Z,7.74
2017-06-01T01:08:33.271Z,10.32
2017-06-01T01:11:00.582Z,8.98
2017-06-01T01:13:27.883Z,4.94
2017-06-01T01:15:55.199Z,6.30
2017-06-01T01:18:22.393Z,4.64
2017-06-01T01:20:49.800Z,6.44
2017-06-01T01:23:17.132Z,9.40
2017-06-01T01:25:44.353Z,7.10
2017-06-01T01:28:11.669Z,4.30
2017-06-01T01:30:38.926Z,4.90
2017-06-01T01:33:06.748Z,8.16
2017-06-01T01:35:34.085Z,5.36
2017-06-01T01:38:01.450Z,5.50
2017-06-01T01:40:27.924Z,4.42
2017-06-01T01:42:55.305Z,9.07
2017-06-01T01:45:22.577Z,6.42
2017-06-01T01:47:49.929Z,9.58
2017-06-01T01:50:17.152Z,4.92
2017-06-01T01:52:44.509Z,12.38
2017-06-01T01:55:11.856Z,4.60
2017-06-01T01:57:39.241Z,8.52
2017-06-01T02:00:06.570Z,7.42
2017-06-01T02:02:33.912Z,5.77
2017-06-01T02:05:01.365Z,8.25
2017-06-01T02:07:28.696Z,9.72
2017-06-01T02:09:56.136Z,7.62
2017-06-01T02:12:23.465Z,5.62
2017-06-01T02:14:57.768Z,7.53
2017-06-01T02:17:25.020Z,11.46
2017-06-01T02:19:52.751Z,5.10
2017-06-01T02:22:19.952Z,6.10
2017-06-01T02:24:47.307Z,7.12
2017-06-01T02:27:14.668Z,8.07
2017-06-01T02:29:41.944Z,5.95
2017-06-01T02:32:09.300Z,7.15
2017-06-01T02:34:37.017Z,7.52
2017-06-01T02:37:04.409Z,5.87
2017-06-01T02:39:31.766Z,7.30
2017-06-01T02:41:59.149Z,8.54
2017-06-01T02:44:26.511Z,9.26
2017-06-01T02:46:54.008Z,8.65
2017-06-01T02:49:21.368Z,5.50
2017-06-01T02:51:48.669Z,6.87
2017-06-01T02:54:16.012Z,7.78
2017-06-01T02:56:43.338Z,8.92
2017-06-01T02:59:10.599Z,7.92
2017-06-01T03:01:38.007Z,9.95
2017-06-01T03:04:05.676Z,6.25
2017-06-01T03:06:33.020Z,16.27
2017-06-01T03:09:00.390Z,8.55
2017-06-01T03:11:27.716Z,7.73
2017-06-01T03:13:55.098Z,9.27
2017-06-01T03:16:22.588Z,7.18
2017-06-01T03:18:50.013Z,8.68
2017-06-01T03:21:17.375Z,8.27
2017-06-01T03:23:44.692Z,12.00
2017-06-01T03:26:12.072Z,7.83
2017-06-01T03:28:39.432Z,10.47
2017-06-01T03:31:06.818Z,6.48
2017-06-01T03:33:33.418Z,7.73
2017-06-01T03:36:00.801Z,9.25
2017-06-01T03:38:27.360Z,9.37
2017-06-01T03:40:54.729Z,16.27
2017-06-01T03:43:22.180Z,5.67
2017-06-01T03:45:49.537Z,10.42
2017-06-01T03:48:16.768Z,8.05
2017-06-01T03:50:44.128Z,7.95
2017-06-01T03:53:11.452Z,7.18
2017-06-01T03:55:38.868Z,8.45
2017-06-01T03:58:06.192Z,8.27
2017-06-01T04:00:33.548Z,6.48
2017-06-01T04:03:00.900Z,9.57
2017-06-01T04:05:28.360Z,7.92
2017-06-01T04:07:55.708Z,13.13
2017-06-01T04:10:23.052Z,6.15
2017-06-01T04:12:50.413Z,9.02
2017-06-01T04:15:17.761Z,9.60
2017-06-01T04:17:45.084Z,7.60
2017-06-01T04:20:12.465Z,8.33
2017-06-01T04:22:39.940Z,9.98
2017-06-01T04:25:07.301Z,8.65
2017-06-01T04:27:34.741Z,8.37
2017-06-01T04:30:02.044Z,8.00
2017-06-01T04:32:29.359Z,8.77
2017-06-01T04:34:56.694Z,7.15
2017-06-01T04:37:24.056Z,7.12
2017-06-01T04:39:51.436Z,8.17
2017-06-01T04:42:18.807Z,8.18
2017-06-01T04:44:46.048Z,7.62
2017-06-01T04:47:13.249Z,17.77
2017-06-01T04:49:40.592Z,15.02
2017-06-01T04:52:07.926Z,13.60
2017-06-01T04:54:35.265Z,14.07
2017-06-01T04:57:02.604Z,12.78
2017-06-01T04:59:31.245Z,12.63
2017-06-01T05:01:58.696Z,16.20
2017-06-01T05:04:25.893Z,18.55
2017-06-01T05:06:53.298Z,16.12
2017-06-01T05:09:20.624Z,11.65
2017-06-01T05:11:48.145Z,10.73
2017-06-01T05:14:15.468Z,15.07
2017-06-01T05:16:42.752Z,14.28
2017-06-01T05:19:10.041Z,8.17
2017-06-01T05:21:36.619Z,10.17
2017-06-01T05:24:03.975Z,8.93
2017-06-01T05:26:31.209Z,9.40
2017-06-01T05:28:58.452Z,14.35
2017-06-01T05:31:25.745Z,10.98
2017-06-01T05:33:53.078Z,15.58
2017-06-01T05:36:19.584Z,10.48
2017-06-01T05:38:46.908Z,8.88
2017-06-01T05:41:14.229Z,16.02
2017-06-01T05:43:41.558Z,9.54
2017-06-01T05:46:08.848Z,12.24
2017-06-01T05:48:36.164Z,13.80
2017-06-01T05:51:03.472Z,11.32
2017-06-01T05:53:30.691Z,9.54
2017-06-01T05:56:04.827Z,10.72
2017-06-01T05:58:32.081Z,8.14
2017-06-01T06:00:59.436Z,9.22
2017-06-01T06:03:26.785Z,9.80
2017-06-01T06:05:54.069Z,11.14
2017-06-01T06:08:21.368Z,11.56
2017-06-01T06:10:48.708Z,12.42
2017-06-01T06:13:16.009Z,13.30
2017-06-01T06:15:43.344Z,8.92
2017-06-01T06:18:10.547Z,6.86
2017-06-01T06:20:37.894Z,12.38
2017-06-01T06:23:05.365Z,13.16
2017-06-01T06:25:32.698Z,7.40
2017-06-01T06:28:00.013Z,9.42
2017-06-01T06:30:27.321Z,12.30
2017-06-01T06:32:54.993Z,7.88
2017-06-01T06:35:22.297Z,13.64
2017-06-01T06:37:49.610Z,11.94
2017-06-01T06:40:16.982Z,9.62
2017-06-01T06:42:44.315Z,10.20
2017-06-01T06:45:11.608Z,8.86
2017-06-01T06:47:39.003Z,11.60
2017-06-01T06:50:06.292Z,9.38
2017-06-01T06:52:32.969Z,12.80
2017-06-01T06:55:00.028Z,14.32
2017-06-01T06:57:27.088Z,8.88
2017-06-01T06:59:54.149Z,11.22
2017-06-01T07:02:21.258Z,10.14
2017-06-01T07:04:48.389Z,11.42
2017-06-01T07:07:15.462Z,9.70
2017-06-01T07:09:42.576Z,13.78
2017-06-01T07:12:09.628Z,12.26
2017-06-01T07:14:36.702Z,14.44
2017-06-01T07:17:03.005Z,10.34
2017-06-01T07:19:30.164Z,13.38
2017-06-01T07:21:56.498Z,12.52
2017-06-01T07:24:23.573Z,10.06
2017-06-01T07:26:50.653Z,10.48
2017-06-01T07:29:17.760Z,8.94
2017-06-01T07:31:44.876Z,9.48
2017-06-01T07:34:11.948Z,11.20
2017-06-01T07:36:39.221Z,11.66
2017-06-01T07:39:06.310Z,11.60
2017-06-01T07:41:33.362Z,13.22
2017-06-01T07:44:00.428Z,16.72
2017-06-01T07:46:27.500Z,14.28
2017-06-01T07:48:54.559Z,11.38
2017-06-01T07:51:21.644Z,11.58
2017-06-01T07:53:48.714Z,11.92
2017-06-01T07:56:15.793Z,10.66
2017-06-01T07:58:42.958Z,10.58
2017-06-01T08:01:10.018Z,9.12
2017-06-01T08:03:37.087Z,9.48
2017-06-01T08:06:04.143Z,8.58
2017-06-01T08:08:31.204Z,12.34
2017-06-01T08:10:58.250Z,12.00
2017-06-01T08:13:25.311Z,10.68
2017-06-01T08:15:52.418Z,14.02
2017-06-01T08:18:19.842Z,7.80
2017-06-01T08:20:46.904Z,7.48
2017-06-01T08:23:13.967Z,10.92
2017-06-01T08:25:41.073Z,8.24
2017-06-01T08:28:08.176Z,9.18
2017-06-01T08:30:35.310Z,8.26
2017-06-01T08:33:02.426Z,6.80
2017-06-01T08:35:29.505Z,9.62
2017-06-01T08:37:56.640Z,5.32
2017-06-01T08:40:23.998Z,7.44
2017-06-01T08:42:51.061Z,7.00
2017-06-01T08:45:18.361Z,11.86
2017-06-01T08:47:45.484Z,7.32
2017-06-01T08:50:12.558Z,10.14
2017-06-01T08:52:40.218Z,12.10
2017-06-01T08:55:07.326Z,9.04
2017-06-01T08:57:34.407Z,10.30
2017-06-01T09:00:01.474Z,9.60
2017-06-01T09:02:29.109Z,10.20
2017-06-01T09:04:56.188Z,8.90
2017-06-01T09:07:23.245Z,11.04
2017-06-01T09:09:50.317Z,7.42
2017-06-01T09:12:17.514Z,10.24
2017-06-01T09:14:44.604Z,13.58
2017-06-01T09:17:11.709Z,14.90
2017-06-01T09:19:38.892Z,10.52
2017-06-01T09:22:06.011Z,8.30
2017-06-01T09:24:33.144Z,7.26
2017-06-01T09:27:00.631Z,11.30
2017-06-01T09:29:27.714Z,10.04
2017-06-01T09:31:54.797Z,8.54
2017-06-01T09:34:21.921Z,8.62
2017-06-01T09:36:48.997Z,9.00
2017-06-01T09:39:16.077Z,12.52
2017-06-01T09:41:50.039Z,8.64
2017-06-01T09:44:17.128Z,8.48
2017-06-01T09:46:44.209Z,8.72
2017-06-01T09:49:13.209Z,7.70
2017-06-01T09:51:40.303Z,8.68
2017-06-01T09:54:07.364Z,7.04
2017-06-01T09:56:34.420Z,8.00
2017-06-01T09:59:01.485Z,7.72
2017-06-01T10:01:28.552Z,5.86
2017-06-01T10:03:55.765Z,13.76
2017-06-01T10:06:22.096Z,10.28
2017-06-01T10:08:49.897Z,9.50
2017-06-01T10:11:16.949Z,11.44
2017-06-01T10:13:44.145Z,9.46
2017-06-01T10:16:11.358Z,10.04
2017-06-01T10:18:38.492Z,12.04
2017-06-01T10:21:12.661Z,12.88
2017-06-01T10:23:39.717Z,12.18
2017-06-01T10:26:06.797Z,13.62
2017-06-01T10:28:33.881Z,8.34
2017-06-01T10:31:01.385Z,11.70
2017-06-01T10:33:28.497Z,9.34
2017-06-01T10:35:55.584Z,14.82
2017-06-01T10:38:22.653Z,10.16
2017-06-01T10:40:49.951Z,11.22
2017-06-01T10:43:24.025Z,10.82
2017-06-01T10:45:51.101Z,9.68
2017-06-01T10:48:18.158Z,10.94
2017-06-01T10:50:45.224Z,10.30
2017-06-01T10:53:12.497Z,11.54
2017-06-01T10:55:39.628Z,16.14
2017-06-01T10:58:06.720Z,8.14
2017-06-01T11:00:33.826Z,8.34
2017-06-01T11:03:00.896Z,9.08
2017-06-01T11:05:27.951Z,9.46
2017-06-01T11:07:55.020Z,9.96
2017-06-01T11:10:23.082Z,8.58
2017-06-01T11:12:50.192Z,9.66
2017-06-01T11:15:17.251Z,9.72
2017-06-01T11:17:44.337Z,11.10
2017-06-01T11:20:11.395Z,9.80
2017-06-01T11:22:38.492Z,13.86
2017-06-01T11:25:20.572Z,10.44
2017-06-01T11:27:47.656Z,9.48
2017-06-01T11:30:14.760Z,7.66
2017-06-01T11:32:41.896Z,10.10
2017-06-01T11:35:16.020Z,7.22
2017-06-01T11:37:43.226Z,8.54
2017-06-01T11:40:10.297Z,7.30
2017-06-01T11:42:37.388Z,7.02
2017-06-01T11:45:04.457Z,9.16
2017-06-01T11:47:31.528Z,10.28
2017-06-01T11:49:58.732Z,8.90
2017-06-01T11:52:26.132Z,12.46
2017-06-01T11:54:53.213Z,7.20
2017-06-01T11:57:22.698Z,12.04
2017-06-01T11:59:49.784Z,10.76
2017-06-01T12:02:16.852Z,8.08
2017-06-01T12:04:43.921Z,7.58
2017-06-01T12:07:10.993Z,7.42
2017-06-01T12:09:38.121Z,7.10
2017-06-01T12:12:05.206Z,7.42
2017-06-01T12:14:32.288Z,7.72
2017-06-01T12:16:59.348Z,7.94
2017-06-01T12:19:25.697Z,7.42
2017-06-01T12:21:52.764Z,14.26
2017-06-01T12:24:19.841Z,8.14
2017-06-01T12:26:46.897Z,8.56
2017-06-01T12:29:15.081Z,8.62
2017-06-01T12:31:42.688Z,9.12
2017-06-01T12:34:09.779Z,7.12
2017-06-01T12:36:36.861Z,11.20
2017-06-01T12:39:03.965Z,7.68
2017-06-01T12:41:31.059Z,7.78
2017-06-01T12:43:59.359Z,8.60
2017-06-01T12:46:26.421Z,8.12
2017-06-01T12:48:53.629Z,7.78
2017-06-01T12:51:20.692Z,6.24
2017-06-01T12:53:47.769Z,7.24
2017-06-01T12:56:14.825Z,6.68
2017-06-01T12:58:41.897Z,8.04
2017-06-01T13:01:08.976Z,7.22
2017-06-01T13:03:36.053Z,7.38
2017-06-01T13:06:03.116Z,8.06
2017-06-01T13:08:29.433Z,5.58
2017-06-01T13:10:56.503Z,6.72
2017-06-01T13:13:25.778Z,6.10
2017-06-01T13:15:52.852Z,7.04
2017-06-01T13:18:19.912Z,7.46
2017-06-01T13:20:46.237Z,6.64
2017-06-01T13:23:13.305Z,8.68
2017-06-01T13:25:40.433Z,7.18
2017-06-01T13:28:07.546Z,6.36
2017-06-01T13:30:34.662Z,8.24
2017-06-01T13:33:01.860Z,8.16
2017-06-01T13:35:28.940Z,5.96
2017-06-01T13:37:56.020Z,6.96
2017-06-01T13:40:23.098Z,5.38
2017-06-01T13:42:50.184Z,5.14
2017-06-01T13:45:17.301Z,7.52
2017-06-01T13:47:44.628Z,5.32
2017-06-01T13:50:11.912Z,7.14
2017-06-01T13:52:39.383Z,8.74
2017-06-01T13:55:06.696Z,10.86
2017-06-01T13:57:36.176Z,6.34
2017-06-01T14:00:03.516Z,5.62
2017-06-01T14:02:30.820Z,7.02
2017-06-01T14:04:58.144Z,5.88
2017-06-01T14:07:25.429Z,6.32
2017-06-01T14:09:52.766Z,6.36
2017-06-01T14:12:20.646Z,6.30
2017-06-01T14:14:47.892Z,5.70
2017-06-01T14:17:15.147Z,10.22
2017-06-01T14:19:42.432Z,8.86
2017-06-01T14:22:09.713Z,7.20
2017-06-01T14:24:37.020Z,5.92
2017-06-01T14:27:04.377Z,5.34
2017-06-01T14:29:32.494Z,8.42
2017-06-01T14:32:00.384Z,6.88
2017-06-01T14:34:28.057Z,6.90
2017-06-01T14:36:55.477Z,6.86
2017-06-01T14:39:22.804Z,10.84
2017-06-01T14:41:50.105Z,9.50
2017-06-01T14:44:17.505Z,11.04
2017-06-01T14:46:44.829Z,6.98
2017-06-01T14:49:12.498Z,6.54
2017-06-01T14:51:40.010Z,8.14
2017-06-01T14:54:07.345Z,7.38
2017-06-01T14:56:34.603Z,10.58
2017-06-01T14:59:01.937Z,8.20
2017-06-01T15:01:28.480Z,7.52
2017-06-01T15:03:56.292Z,6.20
2017-06-01T15:06:23.601Z,9.32
2017-06-01T15:08:50.913Z,8.60
2017-06-01T15:11:18.225Z,9.28
2017-06-01T15:13:45.521Z,9.16
2017-06-01T15:16:12.844Z,7.50
2017-06-01T15:18:40.244Z,5.92
2017-06-01T15:21:07.644Z,7.24
2017-06-01T15:23:35.026Z,7.42
2017-06-01T15:26:02.363Z,6.98
2017-06-01T15:28:30.096Z,8.48
2017-06-01T15:30:56.658Z,7.22
2017-06-01T15:33:23.960Z,7.74
2017-06-01T15:35:51.361Z,8.12
2017-06-01T15:38:18.623Z,6.76
2017-06-01T15:40:45.912Z,7.34
2017-06-01T15:43:13.318Z,7.48
2017-06-01T15:45:40.532Z,7.22
2017-06-01T15:48:07.919Z,9.48
2017-06-01T15:50:35.234Z,7.32
2017-06-01T15:53:02.633Z,7.24
2017-06-01T15:55:30.030Z,6.64
2017-06-01T15:57:58.136Z,6.26
2017-06-01T16:00:25.437Z,8.94
2017-06-01T16:02:53.553Z,6.98
2017-06-01T16:05:20.889Z,11.30
2017-06-01T16:07:48.115Z,10.76
2017-06-01T16:10:15.360Z,7.32
2017-06-01T16:12:42.643Z,7.36
2017-06-01T16:15:09.971Z,9.58
2017-06-01T16:17:37.296Z,8.68
2017-06-01T16:20:04.624Z,7.80
2017-06-01T16:22:31.953Z,8.48
2017-06-01T16:24:59.191Z,6.48
2017-06-01T16:27:26.417Z,6.08
2017-06-01T16:29:53.676Z,9.20
2017-06-01T16:32:21.026Z,8.12
2017-06-01T16:34:48.409Z,7.74
2017-06-01T16:37:15.841Z,8.10
2017-06-01T16:39:43.232Z,6.16
2017-06-01T16:42:10.549Z,10.06
2017-06-01T16:44:37.861Z,7.44
2017-06-01T16:47:05.200Z,4.56
2017-06-01T16:49:34.077Z,5.08
2017-06-01T16:52:01.399Z,5.94
2017-06-01T16:54:28.692Z,7.56
2017-06-01T16:56:56.009Z,6.34
2017-06-01T16:59:23.301Z,5.06
2017-06-01T17:01:55.530Z,6.02
2017-06-01T17:04:22.887Z,6.56
2017-06-01T17:06:50.194Z,5.18
2017-06-01T17:09:17.433Z,4.30
2017-06-01T17:11:44.777Z,7.62
2017-06-01T17:14:17.250Z,4.48
2017-06-01T17:16:44.402Z,5.54
2017-06-01T17:19:11.780Z,4.46
2017-06-01T17:21:38.990Z,6.14
2017-06-01T17:24:06.308Z,3.80
2017-06-01T17:26:33.628Z,3.82
2017-06-01T17:29:01.036Z,5.60
2017-06-01T17:31:28.232Z,6.62
2017-06-01T17:33:55.576Z,4.12
2017-06-01T17:36:22.922Z,3.62
2017-06-01T17:38:50.244Z,4.58
2017-06-01T17:41:17.675Z,3.70
2017-06-01T17:43:49.776Z,5.02
2017-06-01T17:46:17.072Z,2.82
2017-06-01T17:48:49.868Z,4.94
2017-06-01T17:51:17.064Z,2.90
2017-06-01T17:53:44.357Z,3.76
2017-06-01T17:56:16.184Z,4.24
2017-06-01T17:58:47.560Z,7.52
2017-06-01T18:01:14.186Z,3.52
2017-06-01T18:03:41.464Z,4.82
2017-06-01T18:06:08.790Z,3.30
2017-06-01T18:08:44.482Z,3.74
2017-06-01T18:11:11.865Z,3.60
2017-06-01T18:13:39.172Z,7.36
2017-06-01T18:16:06.520Z,6.98
2017-06-01T18:18:33.862Z,5.96
2017-06-01T18:21:01.080Z,3.42
2017-06-01T18:23:28.288Z,2.92
2017-06-01T18:25:55.703Z,2.74
2017-06-01T18:28:23.074Z,2.38
2017-06-01T18:30:50.617Z,2.64
2017-06-01T18:33:18.122Z,3.84
2017-06-01T18:35:45.445Z,2.86
2017-06-01T18:38:12.749Z,3.60
2017-06-01T18:40:40.443Z,2.46
2017-06-01T18:43:07.001Z,2.06
2017-06-01T18:45:34.324Z,3.18
2017-06-01T18:48:01.649Z,2.76
2017-06-01T18:50:28.996Z,2.94
2017-06-01T18:52:56.389Z,2.10
2017-06-01T18:55:23.886Z,2.56
2017-06-01T18:57:51.188Z,2.98
2017-06-01T19:00:18.507Z,4.84
2017-06-01T19:02:46.525Z,3.94
2017-06-01T19:05:13.801Z,1.98
2017-06-01T19:07:41.182Z,2.32
2017-06-01T19:10:08.369Z,3.30
2017-06-01T19:12:35.728Z,2.28
2017-06-01T19:15:03.040Z,2.04
2017-06-01T19:17:30.276Z,2.02
2017-06-01T19:19:57.612Z,5.08
2017-06-01T19:22:24.820Z,2.20
2017-06-01T19:24:54.837Z,1.84
2017-06-01T19:27:21.405Z,2.50
2017-06-01T19:29:48.778Z,2.60
2017-06-01T19:32:16.327Z,5.40
2017-06-01T19:34:43.950Z,2.80
2017-06-01T19:37:11.688Z,1.82
2017-06-01T19:39:39.041Z,4.58
2017-06-01T19:42:06.329Z,2.88
2017-06-01T19:44:33.673Z,3.30
2017-06-01T19:47:00.984Z,2.68
2017-06-01T19:49:28.387Z,2.96
2017-06-01T19:51:55.720Z,2.74
2017-06-01T19:54:23.227Z,3.40
2017-06-01T19:56:50.625Z,2.00
2017-06-01T19:59:17.936Z,3.94
2017-06-01T20:01:45.262Z,4.42
2017-06-01T20:04:12.548Z,4.12
2017-06-01T20:06:39.932Z,5.88
2017-06-01T20:09:07.435Z,2.90
2017-06-01T20:11:34.720Z,2.86
2017-06-01T20:14:02.036Z,3.76
2017-06-01T20:16:29.224Z,6.34
2017-06-01T20:18:56.525Z,3.88
2017-06-01T20:21:23.848Z,4.90
2017-06-01T20:23:51.068Z,4.96
2017-06-01T20:26:18.393Z,5.10
2017-06-01T20:28:45.763Z,8.00
2017-06-01T20:31:13.109Z,7.02
2017-06-01T20:33:40.754Z,5.74
2017-06-01T20:36:08.088Z,7.20
2017-06-01T20:38:35.319Z,9.04
2017-06-01T20:41:02.819Z,5.10
2017-06-01T20:43:29.396Z,10.80
2017-06-01T20:45:56.696Z,7.96
2017-06-01T20:48:23.869Z,11.34
2017-06-01T20:50:51.104Z,6.82
2017-06-01T20:53:18.444Z,5.44
2017-06-01T20:55:45.771Z,5.50
2017-06-01T20:58:13.083Z,8.24
2017-06-01T21:00:40.560Z,6.12
2017-06-01T21:03:07.868Z,6.06
2017-06-01T21:05:35.197Z,6.34
2017-06-01T21:08:02.509Z,6.36
2017-06-01T21:10:30.091Z,9.10
2017-06-01T21:12:57.295Z,5.30
2017-06-01T21:15:24.645Z,6.08
2017-06-01T21:17:51.965Z,12.02
2017-06-01T21:20:19.155Z,8.00
2017-06-01T21:22:46.595Z,5.92
2017-06-01T21:25:13.904Z,7.22
2017-06-01T21:27:40.572Z,5.60
2017-06-01T21:30:08.029Z,6.50
2017-06-01T21:32:35.380Z,8.40
2017-06-01T21:35:02.718Z,8.36
2017-06-01T21:37:30.087Z,13.34
2017-06-01T21:39:57.402Z,6.22
2017-06-01T21:42:24.778Z,7.72
2017-06-01T21:45:06.929Z,8.08
2017-06-01T21:47:34.352Z,6.84
2017-06-01T21:50:01.669Z,7.44
2017-06-01T21:52:28.872Z,8.00
2017-06-01T21:55:11.113Z,6.74
2017-06-01T21:57:38.402Z,8.08
2017-06-01T22:00:05.828Z,7.08
2017-06-01T22:02:33.184Z,8.24
2017-06-01T22:05:00.504Z,9.60
2017-06-01T22:07:27.854Z,7.80
2017-06-01T22:09:55.210Z,9.32
2017-06-01T22:12:22.500Z,10.54
2017-06-01T22:14:49.792Z,11.12
2017-06-01T22:17:17.068Z,9.30
2017-06-01T22:19:44.412Z,11.24
2017-06-01T22:22:12.060Z,9.16
2017-06-01T22:24:39.427Z,14.74
2017-06-01T22:27:06.756Z,9.72
2017-06-01T22:29:34.079Z,9.80
2017-06-01T22:32:01.373Z,11.50
2017-06-01T22:34:28.665Z,10.34
2017-06-01T22:36:56.231Z,15.02
2017-06-01T22:39:22.848Z,9.04
2017-06-01T22:41:50.118Z,11.26
2017-06-01T22:44:17.404Z,9.50
2017-06-01T22:46:44.707Z,11.12
2017-06-01T22:49:11.992Z,9.08
2017-06-01T22:51:39.328Z,10.60
2017-06-01T22:54:06.809Z,12.94
2017-06-01T22:56:34.143Z,13.50
2017-06-01T22:59:01.452Z,9.98
2017-06-01T23:01:28.789Z,9.64
2017-06-01T23:03:56.119Z,10.82
2017-06-01T23:06:23.446Z,9.16
2017-06-01T23:08:50.801Z,11.76
2017-06-01T23:11:18.068Z,11.10
2017-06-01T23:13:45.433Z,9.82
2017-06-01T23:16:12.837Z,10.08
2017-06-01T23:18:40.215Z,15.22
2017-06-01T23:21:07.493Z,9.48
2017-06-01T23:23:34.781Z,13.94
2017-06-01T23:26:02.159Z,9.50
2017-06-01T23:28:29.494Z,12.80
2017-06-01T23:30:56.781Z,9.32
2017-06-01T23:33:24.069Z,9.96
2017-06-01T23:35:51.360Z,9.18
2017-06-01T23:38:18.615Z,10.34
2017-06-01T23:40:45.989Z,10.44
2017-06-01T23:43:13.604Z,9.92
2017-06-01T23:45:40.997Z,8.86
2017-06-01T23:48:08.282Z,10.62
2017-06-01T23:50:35.602Z,13.64
2017-06-01T23:53:02.900Z,8.48
2017-06-01T23:55:30.719Z,8.80
2017-06-01T23:57:58.021Z,8.86
